Terminal Aerodrome Forecast
Issued by NWS Charleston, WV

Home | Current Version | Previous Version | Text Only | Print | Product List | Glossary On
Versions: 1 2 3 4 5 6 7 8 9 10 11 12 13 14 15 16 17 18 19 20 21 22 23
000
FTUS41 KRLX 221739
TAFHTS
TAF
KHTS 221739Z 2218/2318 17008G16KT P6SM FEW100 BKN200
     FM222200 18008G16KT P6SM VCSH BKN100
     FM230100 17008G16KT P6SM BKN080 WS020/19045KT
     FM230600 20010G20KT 5SM -SHRA OVC030
     FM230800 23008G16KT P6SM BKN060
     FM231500 24015G25KT P6SM OVC035=

USA.gov is the U.S. government's official web portal to all federal, state and local government web resources and services.